createdAt,value
2022-09-28T00:00:47.634Z,17.81
2022-09-28T00:01:49.441Z,17.65
2022-09-28T00:02:51.417Z,17.59
2022-09-28T00:03:58.360Z,17.52
2022-09-28T00:05:00.054Z,17.49
2022-09-28T00:06:08.082Z,17.26
2022-09-28T00:07:09.812Z,17.16
2022-09-28T00:08:11.453Z,17.24
2022-09-28T00:09:14.375Z,17.10
2022-09-28T00:10:16.202Z,17.02
2022-09-28T00:11:19.349Z,16.83
2022-09-28T00:12:21.899Z,16.58
2022-09-28T00:13:24.728Z,16.71
2022-09-28T00:14:26.582Z,16.76
2022-09-28T00:15:28.254Z,16.72
2022-09-28T00:16:33.080Z,16.72
2022-09-28T00:17:36.513Z,16.69
2022-09-28T00:18:38.182Z,16.62
2022-09-28T00:19:44.104Z,16.56
2022-09-28T00:20:45.762Z,16.63
2022-09-28T00:21:48.105Z,16.70
2022-09-28T00:22:49.842Z,16.65
2022-09-28T00:24:12.009Z,16.72
2022-09-28T00:25:13.819Z,16.70
2022-09-28T00:26:15.502Z,16.64
2022-09-28T00:27:18.203Z,16.58
2022-09-28T00:28:19.825Z,16.54
2022-09-28T00:29:32.663Z,16.61
2022-09-28T00:30:34.350Z,16.57
2022-09-28T00:31:37.029Z,16.56
2022-09-28T00:32:38.755Z,16.71
2022-09-28T00:33:40.827Z,16.77
2022-09-28T00:34:46.093Z,16.82
2022-09-28T00:35:54.705Z,16.86
2022-09-28T00:36:56.363Z,16.96
2022-09-28T00:37:58.029Z,16.89
2022-09-28T00:39:03.218Z,16.88
2022-09-28T00:40:05.473Z,16.87
2022-09-28T00:41:08.288Z,16.83
2022-09-28T00:42:24.321Z,16.79
2022-09-28T00:43:28.199Z,16.79
2022-09-28T00:44:46.018Z,16.84
2022-09-28T00:45:59.197Z,16.81
2022-09-28T00:47:38.101Z,16.85
2022-09-28T00:48:47.415Z,16.89
2022-09-28T00:50:07.709Z,16.82
2022-09-28T00:51:12.787Z,16.81
2022-09-28T00:53:07.384Z,16.85
2022-09-28T00:54:09.806Z,16.91
2022-09-28T00:55:22.239Z,17.09
2022-09-28T00:56:27.159Z,17.03
2022-09-28T00:57:29.979Z,17.02
2022-09-28T00:58:36.547Z,17.09
2022-09-28T00:59:38.308Z,17.18
2022-09-28T01:00:43.341Z,17.23
2022-09-28T01:01:45.250Z,17.29
2022-09-28T01:02:47.916Z,17.24
2022-09-28T01:03:49.637Z,17.10
2022-09-28T01:04:52.339Z,17.12
2022-09-28T01:05:57.571Z,17.14
2022-09-28T01:06:59.345Z,17.19
2022-09-28T01:08:02.289Z,17.26
2022-09-28T01:09:07.747Z,17.32
2022-09-28T01:10:09.942Z,17.33
2022-09-28T01:11:11.643Z,17.33
2022-09-28T01:12:13.334Z,17.28
2022-09-28T01:13:16.675Z,17.26
2022-09-28T01:14:19.381Z,17.39
2022-09-28T01:15:22.246Z,17.43
2022-09-28T01:17:01.166Z,17.43
2022-09-28T01:18:27.196Z,17.44
2022-09-28T01:20:07.118Z,17.43
2022-09-28T01:21:23.892Z,17.34
2022-09-28T01:22:52.249Z,17.43
2022-09-28T01:24:31.152Z,17.42
2022-09-28T01:25:48.009Z,17.40
2022-09-28T01:26:52.448Z,17.41
2022-09-28T01:28:04.457Z,17.34
2022-09-28T01:29:21.788Z,17.34
2022-09-28T01:30:23.582Z,17.35
2022-09-28T01:31:28.468Z,17.34
2022-09-28T01:32:36.927Z,17.31
2022-09-28T01:33:55.624Z,17.31
2022-09-28T01:35:21.194Z,17.30
2022-09-28T01:36:30.324Z,17.23
2022-09-28T01:37:42.283Z,17.30
2022-09-28T01:38:49.438Z,17.35
2022-09-28T01:39:52.841Z,17.28
2022-09-28T01:40:56.699Z,17.29
2022-09-28T01:42:05.256Z,17.36
2022-09-28T01:43:26.026Z,17.37
2022-09-28T01:44:31.993Z,17.31
2022-09-28T01:45:40.630Z,17.38
2022-09-28T01:46:46.807Z,17.38
2022-09-28T01:47:50.008Z,17.37
2022-09-28T01:48:59.263Z,17.40
2022-09-28T01:50:07.417Z,17.43
2022-09-28T01:51:17.387Z,17.39
2022-09-28T01:52:31.810Z,17.37
2022-09-28T01:53:37.534Z,17.37
2022-09-28T01:54:46.371Z,17.36
2022-09-28T01:55:53.779Z,17.27
2022-09-28T01:57:12.189Z,17.35
2022-09-28T01:58:22.809Z,17.35
2022-09-28T01:59:28.666Z,17.30
2022-09-28T02:00:30.631Z,17.30
2022-09-28T02:01:41.532Z,17.22
2022-09-28T02:03:17.011Z,17.17
2022-09-28T02:04:24.248Z,17.18
2022-09-28T02:05:34.182Z,17.17
2022-09-28T02:06:47.821Z,17.18
2022-09-28T02:07:59.719Z,17.04
2022-09-28T02:09:11.679Z,17.14
2022-09-28T02:10:19.433Z,17.14
2022-09-28T02:11:22.628Z,17.12
2022-09-28T02:12:31.861Z,16.91
2022-09-28T02:13:37.668Z,16.76
2022-09-28T02:14:41.535Z,16.57
2022-09-28T02:15:49.950Z,16.45
2022-09-28T02:16:56.853Z,16.45
2022-09-28T02:17:58.578Z,16.66
2022-09-28T02:19:01.148Z,16.72
2022-09-28T02:20:03.469Z,16.74
2022-09-28T02:21:12.797Z,16.81
2022-09-28T02:22:28.690Z,16.84
2022-09-28T02:23:33.852Z,16.77
2022-09-28T02:24:50.856Z,16.86
2022-09-28T02:26:02.280Z,16.86
2022-09-28T02:27:13.094Z,16.86
2022-09-28T02:28:14.956Z,16.89
2022-09-28T02:29:17.043Z,16.73
2022-09-28T02:30:18.995Z,16.84
2022-09-28T02:31:20.785Z,16.84
2022-09-28T02:32:24.410Z,16.75
2022-09-28T02:33:38.353Z,16.73
2022-09-28T02:34:40.024Z,16.75
2022-09-28T02:35:42.869Z,16.78
2022-09-28T02:36:46.977Z,16.65
2022-09-28T02:37:49.989Z,16.63
2022-09-28T02:38:52.533Z,16.67
2022-09-28T02:39:54.250Z,16.55
2022-09-28T02:41:14.789Z,16.55
2022-09-28T02:42:46.485Z,16.57
2022-09-28T02:44:03.381Z,16.54
2022-09-28T02:45:35.380Z,16.53
2022-09-28T02:46:45.789Z,16.54
2022-09-28T02:48:06.553Z,16.55
2022-09-28T02:49:42.524Z,16.49
2022-09-28T02:50:52.704Z,16.43
2022-09-28T02:52:19.752Z,16.37
2022-09-28T02:53:45.714Z,16.31
2022-09-28T02:54:56.086Z,16.32
2022-09-28T02:56:11.698Z,16.32
2022-09-28T02:57:19.820Z,16.37
2022-09-28T02:58:39.775Z,16.39
2022-09-28T03:00:05.701Z,16.17
2022-09-28T03:01:25.401Z,16.02
2022-09-28T03:02:53.423Z,15.97
2022-09-28T03:04:05.813Z,15.96
2022-09-28T03:05:24.534Z,15.94
2022-09-28T03:06:37.641Z,15.98
2022-09-28T03:07:46.929Z,16.03
2022-09-28T03:08:59.953Z,15.93
2022-09-28T03:10:20.675Z,16.08
2022-09-28T03:11:43.850Z,16.08
2022-09-28T03:12:48.398Z,16.10
2022-09-28T03:13:51.931Z,16.13
2022-09-28T03:15:24.317Z,16.19
2022-09-28T03:16:27.687Z,16.04
2022-09-28T03:17:29.434Z,16.20
2022-09-28T03:18:32.405Z,16.21
2022-09-28T03:19:34.811Z,16.06
2022-09-28T03:20:37.408Z,16.12
2022-09-28T03:21:39.435Z,16.13
2022-09-28T03:22:41.094Z,16.00
2022-09-28T03:23:43.253Z,16.05
2022-09-28T03:24:44.916Z,16.12
2022-09-28T03:25:46.586Z,16.15
2022-09-28T03:26:48.231Z,16.19
2022-09-28T03:27:49.893Z,16.20
2022-09-28T03:28:51.641Z,16.21
2022-09-28T03:29:53.345Z,16.19
2022-09-28T03:30:55.282Z,16.08
2022-09-28T03:31:56.997Z,16.20
2022-09-28T03:32:59.680Z,16.11
2022-09-28T03:34:01.416Z,16.22
2022-09-28T03:35:03.498Z,16.23
2022-09-28T03:36:06.074Z,16.14
2022-09-28T03:37:07.752Z,16.19
2022-09-28T03:38:09.396Z,16.12
2022-09-28T03:39:11.184Z,16.13
2022-09-28T03:40:13.041Z,16.15
2022-09-28T03:41:14.713Z,16.16
2022-09-28T03:42:16.387Z,16.16
2022-09-28T03:43:18.030Z,16.17
2022-09-28T03:44:19.887Z,16.19
2022-09-28T03:45:21.605Z,16.11
2022-09-28T03:46:23.313Z,16.20
2022-09-28T03:47:25.004Z,16.11
2022-09-28T03:48:36.661Z,16.05
2022-09-28T03:49:38.305Z,16.03
2022-09-28T03:50:40.019Z,15.88
2022-09-28T03:51:41.666Z,15.86
2022-09-28T03:52:43.648Z,15.81
2022-09-28T03:53:45.333Z,15.98
2022-09-28T03:54:49.219Z,16.01
2022-09-28T03:55:53.379Z,16.03
2022-09-28T03:56:55.057Z,15.97
2022-09-28T03:57:56.783Z,16.04
2022-09-28T03:58:58.514Z,15.76
2022-09-28T04:00:00.305Z,16.09
2022-09-28T04:01:14.144Z,16.13
2022-09-28T04:02:18.369Z,16.15
2022-09-28T04:03:20.014Z,16.15
2022-09-28T04:04:21.650Z,16.12
2022-09-28T04:05:23.319Z,16.10
2022-09-28T04:06:25.609Z,16.09
2022-09-28T04:07:30.919Z,16.07
2022-09-28T04:08:33.085Z,16.07
2022-09-28T04:09:34.816Z,16.09
2022-09-28T04:10:36.476Z,16.07
2022-09-28T04:11:59.403Z,16.07
2022-09-28T04:12:59.960Z,16.10
2022-09-28T04:14:01.658Z,16.11
2022-09-28T04:15:03.428Z,16.02
2022-09-28T04:16:05.530Z,16.05
2022-09-28T04:17:07.326Z,16.05
2022-09-28T04:18:13.691Z,15.95
2022-09-28T04:19:15.808Z,15.97
2022-09-28T04:20:18.010Z,15.92
2022-09-28T04:21:20.777Z,15.89
2022-09-28T04:22:23.479Z,15.89
2022-09-28T04:23:25.252Z,15.88
2022-09-28T04:24:26.907Z,15.79
2022-09-28T04:25:28.615Z,15.73
2022-09-28T04:26:30.558Z,15.74
2022-09-28T04:27:50.944Z,15.84
2022-09-28T04:29:11.457Z,15.87
2022-09-28T04:30:13.457Z,15.85
2022-09-28T04:31:18.063Z,15.86
2022-09-28T04:32:19.753Z,15.87
2022-09-28T04:33:21.420Z,15.83
2022-09-28T04:34:23.667Z,15.77
2022-09-28T04:35:25.407Z,15.85
2022-09-28T04:36:27.053Z,15.83
2022-09-28T04:37:31.328Z,15.85
2022-09-28T04:38:51.930Z,15.78
2022-09-28T04:39:54.729Z,15.73
2022-09-28T04:40:56.415Z,15.76
2022-09-28T04:41:58.130Z,15.68
2022-09-28T04:42:59.789Z,15.75
2022-09-28T04:44:01.864Z,15.86
2022-09-28T04:45:04.980Z,15.83
2022-09-28T04:46:06.977Z,15.74
2022-09-28T04:47:08.705Z,15.92
2022-09-28T04:48:10.376Z,15.88
2022-09-28T04:49:12.166Z,15.93
2022-09-28T04:50:13.923Z,15.95
2022-09-28T04:51:15.673Z,15.97
2022-09-28T04:52:18.561Z,15.99
2022-09-28T04:53:20.995Z,16.02
2022-09-28T04:54:22.675Z,15.94
2022-09-28T04:55:24.465Z,16.06
2022-09-28T04:56:26.149Z,16.08
2022-09-28T04:57:27.868Z,16.08
2022-09-28T04:58:31.031Z,16.03
2022-09-28T04:59:32.700Z,16.09
2022-09-28T05:00:35.244Z,16.15
2022-09-28T05:01:37.148Z,16.15
2022-09-28T05:02:39.282Z,16.28
2022-09-28T05:03:41.996Z,16.39
2022-09-28T05:04:43.668Z,16.63
2022-09-28T05:05:45.925Z,16.83
2022-09-28T05:06:47.555Z,17.13
2022-09-28T05:07:49.223Z,17.31
2022-09-28T05:08:50.885Z,17.69
2022-09-28T05:09:53.001Z,17.85
2022-09-28T05:11:00.148Z,18.25
2022-09-28T05:12:02.065Z,18.64
2022-09-28T05:13:03.758Z,18.98
2022-09-28T05:14:06.081Z,19.33
2022-09-28T05:15:08.007Z,19.57
2022-09-28T05:16:10.638Z,19.96
2022-09-28T05:17:12.332Z,20.39
2022-09-28T05:18:14.333Z,20.64
2022-09-28T05:19:16.113Z,20.91
2022-09-28T05:20:17.790Z,21.16
2022-09-28T05:21:20.218Z,21.40
2022-09-28T05:22:21.897Z,21.67
2022-09-28T05:23:23.577Z,21.87
2022-09-28T05:24:25.223Z,22.18
2022-09-28T05:25:26.868Z,22.33
2022-09-28T05:26:28.533Z,22.44
2022-09-28T05:27:30.225Z,22.68
2022-09-28T05:28:33.494Z,22.80
2022-09-28T05:29:35.140Z,23.08
2022-09-28T05:30:37.312Z,23.36
2022-09-28T05:31:39.054Z,23.56
2022-09-28T05:32:44.439Z,23.78
2022-09-28T05:33:46.094Z,23.95
2022-09-28T05:34:47.826Z,24.16
2022-09-28T05:35:53.823Z,24.24
2022-09-28T05:36:56.930Z,24.39
2022-09-28T05:38:04.651Z,24.59
2022-09-28T05:39:06.975Z,24.84
2022-09-28T05:40:09.301Z,25.07
2022-09-28T05:41:11.150Z,25.21
2022-09-28T05:42:12.836Z,25.43
2022-09-28T05:43:14.508Z,25.63
2022-09-28T05:44:16.495Z,25.73
2022-09-28T05:45:18.459Z,25.89
2022-09-28T05:46:21.341Z,26.00
2022-09-28T05:47:23.028Z,26.10
2022-09-28T05:48:25.209Z,26.17
2022-09-28T05:49:29.331Z,26.37
2022-09-28T05:50:31.129Z,26.42
2022-09-28T05:51:32.794Z,26.69
2022-09-28T05:52:34.572Z,26.87
2022-09-28T05:53:36.609Z,27.11
2022-09-28T05:54:38.339Z,27.21
2022-09-28T05:55:40.143Z,27.36
2022-09-28T05:56:41.867Z,27.43
2022-09-28T05:57:43.538Z,27.47
2022-09-28T05:58:45.227Z,27.54
2022-09-28T05:59:47.034Z,27.62
2022-09-28T06:00:55.048Z,27.52
2022-09-28T06:01:56.708Z,27.37
2022-09-28T06:03:00.194Z,27.40
2022-09-28T06:04:01.846Z,27.48
2022-09-28T06:05:03.750Z,27.55
2022-09-28T06:06:05.551Z,27.70
2022-09-28T06:07:07.305Z,27.81
2022-09-28T06:08:13.412Z,27.81
2022-09-28T06:09:15.100Z,27.94
2022-09-28T06:10:16.821Z,27.83
2022-09-28T06:11:18.863Z,27.94
2022-09-28T06:12:20.545Z,27.89
2022-09-28T06:13:22.252Z,27.98
2022-09-28T06:14:24.171Z,28.08
2022-09-28T06:15:29.857Z,28.09
2022-09-28T06:16:31.594Z,28.11
2022-09-28T06:17:33.276Z,28.14
2022-09-28T06:18:35.260Z,28.30
2022-09-28T06:19:36.901Z,28.41
2022-09-28T06:20:41.420Z,28.53
2022-09-28T06:21:43.121Z,28.65
2022-09-28T06:22:44.803Z,28.87
2022-09-28T06:23:49.222Z,29.00
2022-09-28T06:24:51.200Z,29.16
2022-09-28T06:25:52.844Z,29.32
2022-09-28T06:26:54.613Z,29.52
2022-09-28T06:28:15.120Z,29.76
2022-09-28T06:29:19.656Z,29.85
2022-09-28T06:30:22.344Z,29.92
2022-09-28T06:31:25.121Z,30.02
2022-09-28T06:32:29.337Z,30.09
2022-09-28T06:33:31.072Z,30.21
2022-09-28T06:34:32.748Z,30.27
2022-09-28T06:35:35.630Z,30.28
2022-09-28T06:36:37.308Z,30.33
2022-09-28T06:37:39.031Z,30.18
2022-09-28T06:38:40.750Z,30.08
2022-09-28T06:39:42.414Z,30.06
2022-09-28T06:40:44.250Z,30.17
2022-09-28T06:41:45.984Z,29.93
2022-09-28T06:43:10.673Z,29.64
2022-09-28T06:44:12.366Z,29.56
2022-09-28T06:45:14.158Z,29.22
2022-09-28T06:46:15.863Z,29.41
2022-09-28T06:47:17.737Z,29.66
2022-09-28T06:48:19.816Z,29.91
2022-09-28T06:49:22.270Z,30.24
2022-09-28T06:50:31.138Z,30.38
2022-09-28T06:51:33.104Z,30.63
2022-09-28T06:52:34.795Z,30.82
2022-09-28T06:53:36.456Z,31.07
2022-09-28T06:54:38.115Z,31.29
2022-09-28T06:55:41.168Z,31.26
2022-09-28T06:56:42.814Z,31.63
2022-09-28T06:57:44.658Z,31.77
2022-09-28T06:58:46.348Z,31.95
2022-09-28T06:59:48.019Z,32.13
2022-09-28T07:00:53.284Z,32.12
2022-09-28T07:01:54.982Z,32.24
2022-09-28T07:02:57.256Z,32.42
2022-09-28T07:03:59.005Z,32.33
2022-09-28T07:05:00.684Z,32.35
2022-09-28T07:06:02.849Z,32.42
2022-09-28T07:07:04.864Z,32.54
2022-09-28T07:08:06.598Z,32.49
2022-09-28T07:09:27.758Z,32.70
2022-09-28T07:10:31.444Z,32.81
2022-09-28T07:11:44.471Z,32.94
2022-09-28T07:12:47.576Z,33.08
2022-09-28T07:13:51.181Z,33.25
2022-09-28T07:14:57.404Z,33.40
2022-09-28T07:16:02.225Z,33.67
2022-09-28T07:17:13.591Z,33.67
2022-09-28T07:18:17.993Z,33.83
2022-09-28T07:19:19.690Z,33.73
2022-09-28T07:20:21.380Z,33.79
2022-09-28T07:21:29.869Z,34.02
2022-09-28T07:22:42.401Z,34.22
2022-09-28T07:23:52.834Z,34.36
2022-09-28T07:24:55.666Z,34.44
2022-09-28T07:25:58.351Z,34.56
2022-09-28T07:27:00.006Z,34.76
2022-09-28T07:28:02.814Z,34.96
2022-09-28T07:29:05.001Z,35.03
2022-09-28T07:30:07.363Z,35.05
2022-09-28T07:31:09.766Z,35.06
2022-09-28T07:32:11.497Z,35.12
2022-09-28T07:33:16.012Z,35.28
2022-09-28T07:34:18.626Z,35.40
2022-09-28T07:35:20.486Z,35.41
2022-09-28T07:36:22.965Z,35.76
2022-09-28T07:37:26.660Z,35.96
2022-09-28T07:38:28.368Z,36.06
2022-09-28T07:39:30.022Z,36.07
2022-09-28T07:40:52.442Z,35.97
2022-09-28T07:41:56.763Z,36.04
2022-09-28T07:43:07.313Z,36.11
2022-09-28T07:44:08.970Z,36.30
2022-09-28T07:45:11.185Z,36.44
2022-09-28T07:46:13.035Z,36.47
2022-09-28T07:47:15.019Z,36.23
2022-09-28T07:48:17.350Z,36.04
2022-09-28T07:49:19.478Z,35.82
2022-09-28T07:50:21.649Z,35.76
2022-09-28T07:51:23.326Z,35.77
2022-09-28T07:52:26.473Z,35.57
2022-09-28T07:53:28.715Z,35.40
2022-09-28T07:54:31.417Z,35.12
2022-09-28T07:55:33.210Z,35.04
2022-09-28T07:56:35.153Z,34.94
2022-09-28T07:57:36.865Z,34.93
2022-09-28T07:58:39.665Z,34.78
2022-09-28T07:59:41.331Z,34.78
2022-09-28T08:00:45.112Z,34.84
2022-09-28T08:01:49.667Z,35.11
2022-09-28T08:02:51.616Z,35.36
2022-09-28T08:03:56.411Z,35.55
2022-09-28T08:04:58.289Z,35.77
2022-09-28T08:06:01.294Z,35.96
2022-09-28T08:07:03.698Z,36.12
2022-09-28T08:08:05.440Z,36.35
2022-09-28T08:09:07.129Z,36.52
2022-09-28T08:10:09.330Z,36.76
2022-09-28T08:11:16.971Z,36.89
2022-09-28T08:12:19.845Z,36.89
2022-09-28T08:13:23.561Z,36.89
2022-09-28T08:14:28.695Z,37.09
2022-09-28T08:15:37.151Z,37.20
2022-09-28T08:16:38.827Z,37.47
2022-09-28T08:17:46.302Z,37.40
2022-09-28T08:18:51.110Z,37.34
2022-09-28T08:20:11.520Z,37.50
2022-09-28T08:21:31.476Z,37.32
2022-09-28T08:22:33.212Z,37.36
2022-09-28T08:23:34.863Z,37.53
2022-09-28T08:24:36.495Z,37.48
2022-09-28T08:25:38.382Z,37.29
2022-09-28T08:26:40.041Z,37.31
2022-09-28T08:27:41.784Z,36.99
2022-09-28T08:28:45.277Z,36.56
2022-09-28T08:29:46.962Z,36.29
2022-09-28T08:30:49.138Z,36.19
2022-09-28T08:31:50.798Z,36.10
2022-09-28T08:32:52.497Z,35.82
2022-09-28T08:33:54.536Z,35.85
2022-09-28T08:34:56.187Z,36.11
2022-09-28T08:35:59.311Z,36.41
2022-09-28T08:37:00.977Z,36.00
2022-09-28T08:38:03.509Z,35.90
2022-09-28T08:39:05.310Z,35.83
2022-09-28T08:40:17.122Z,35.39
2022-09-28T08:42:12.469Z,35.53
2022-09-28T08:43:31.431Z,35.35
2022-09-28T08:45:49.243Z,35.03
2022-09-28T08:47:02.157Z,34.79
2022-09-28T08:48:35.607Z,34.78
2022-09-28T08:49:45.175Z,34.95
2022-09-28T08:51:10.838Z,35.17
2022-09-28T08:52:12.507Z,35.36
2022-09-28T08:53:36.013Z,35.82
2022-09-28T08:55:02.572Z,35.90
2022-09-28T08:56:12.118Z,35.76
2022-09-28T08:57:20.738Z,35.58
2022-09-28T08:58:32.482Z,35.52
2022-09-28T08:59:52.347Z,35.55
2022-09-28T09:00:54.634Z,35.94
2022-09-28T09:02:00.942Z,36.24
2022-09-28T09:03:06.784Z,36.53
2022-09-28T09:04:09.371Z,36.69
2022-09-28T09:05:14.926Z,36.72
2022-09-28T09:06:22.428Z,36.82
2022-09-28T09:07:33.107Z,36.92
2022-09-28T09:08:34.618Z,36.89
2022-09-28T09:09:36.209Z,36.73
2022-09-28T09:10:50.001Z,36.93
2022-09-28T09:12:00.859Z,37.05
2022-09-28T09:13:28.606Z,36.74
2022-09-28T09:15:07.092Z,36.14
2022-09-28T09:16:17.845Z,36.03
2022-09-28T09:17:25.414Z,36.41
2022-09-28T09:18:37.378Z,36.72
2022-09-28T09:20:03.591Z,36.83
2022-09-28T09:21:18.462Z,36.57
2022-09-28T09:22:38.766Z,36.79
2022-09-28T09:24:24.846Z,37.12
2022-09-28T09:25:28.653Z,37.43
2022-09-28T09:26:40.434Z,37.70
2022-09-28T09:28:04.674Z,37.84
2022-09-28T09:29:25.188Z,37.59
2022-09-28T09:30:31.732Z,37.15
2022-09-28T09:32:10.816Z,37.44
2022-09-28T09:33:15.990Z,37.42
2022-09-28T09:34:46.857Z,37.63
2022-09-28T09:35:58.999Z,37.59
2022-09-28T09:37:22.504Z,37.29
2022-09-28T09:38:48.937Z,36.79
2022-09-28T09:40:26.362Z,36.27
2022-09-28T09:41:51.215Z,36.11
2022-09-28T09:43:11.324Z,35.90
2022-09-28T09:44:38.911Z,35.27
2022-09-28T09:45:41.110Z,34.79
2022-09-28T09:47:02.149Z,34.64
2022-09-28T09:48:07.672Z,34.17
2022-09-28T09:49:27.082Z,33.88
2022-09-28T09:50:32.705Z,33.74
2022-09-28T09:51:42.088Z,33.59
2022-09-28T09:52:55.390Z,33.51
2022-09-28T09:54:12.791Z,33.37
2022-09-28T09:55:21.741Z,33.12
2022-09-28T09:56:44.153Z,33.12
2022-09-28T09:57:54.641Z,33.11
2022-09-28T09:59:02.856Z,32.99
2022-09-28T10:00:04.915Z,32.87
2022-09-28T10:01:14.475Z,32.83
2022-09-28T10:02:36.468Z,32.65
2022-09-28T10:03:43.082Z,32.47
2022-09-28T10:04:47.243Z,32.32
2022-09-28T10:05:56.785Z,32.21
2022-09-28T10:07:03.875Z,32.00
2022-09-28T10:08:08.484Z,31.91
2022-09-28T10:09:17.036Z,31.87
2022-09-28T10:10:18.968Z,31.82
2022-09-28T10:11:27.670Z,31.72
2022-09-28T10:12:31.174Z,31.49
2022-09-28T10:13:33.042Z,31.45
2022-09-28T10:14:35.869Z,31.43
2022-09-28T10:15:37.580Z,31.35
2022-09-28T10:16:39.348Z,31.14
2022-09-28T10:17:41.210Z,30.90
2022-09-28T10:18:42.878Z,30.73
2022-09-28T10:19:44.728Z,30.59
2022-09-28T10:20:46.402Z,30.42
2022-09-28T10:21:53.167Z,30.09
2022-09-28T10:22:58.728Z,30.10
2022-09-28T10:24:04.095Z,30.09
2022-09-28T10:25:06.636Z,30.15
2022-09-28T10:26:24.905Z,30.09
2022-09-28T10:27:34.367Z,30.08
2022-09-28T10:28:45.436Z,29.95
2022-09-28T10:29:54.495Z,29.84
2022-09-28T10:30:56.448Z,29.78
2022-09-28T10:31:58.218Z,29.72
2022-09-28T10:33:01.507Z,29.61
2022-09-28T10:34:04.721Z,29.62
2022-09-28T10:35:18.678Z,29.59
2022-09-28T10:36:20.367Z,29.63
2022-09-28T10:37:22.530Z,29.61
2022-09-28T10:38:24.730Z,29.60
2022-09-28T10:39:30.282Z,29.48
2022-09-28T10:40:37.862Z,29.37
2022-09-28T10:41:49.909Z,29.26
2022-09-28T10:42:59.501Z,29.11
2022-09-28T10:44:07.272Z,28.97
2022-09-28T10:45:23.463Z,28.81
2022-09-28T10:46:25.472Z,28.75
2022-09-28T10:47:33.459Z,28.75
2022-09-28T10:48:38.962Z,28.74
2022-09-28T10:49:47.291Z,28.74
2022-09-28T10:51:08.726Z,28.45
2022-09-28T10:52:29.199Z,28.73
2022-09-28T10:53:30.999Z,28.85
2022-09-28T10:54:32.757Z,28.53
2022-09-28T10:55:37.018Z,28.87
2022-09-28T10:56:41.174Z,29.15
2022-09-28T10:57:42.845Z,29.30
2022-09-28T10:58:44.831Z,29.44
2022-09-28T10:59:47.138Z,29.59
2022-09-28T11:00:49.581Z,29.77
2022-09-28T11:02:09.673Z,29.68
2022-09-28T11:03:52.786Z,29.84
2022-09-28T11:04:58.183Z,29.83
2022-09-28T11:06:10.849Z,29.70
2022-09-28T11:07:27.812Z,29.76
2022-09-28T11:08:38.236Z,29.97
2022-09-28T11:09:45.357Z,30.07
2022-09-28T11:10:47.551Z,29.99
2022-09-28T11:11:49.276Z,30.11
2022-09-28T11:12:51.562Z,29.84
2022-09-28T11:14:01.259Z,29.78
2022-09-28T11:15:06.461Z,29.97
2022-09-28T11:16:14.191Z,30.08
2022-09-28T11:17:32.830Z,30.26
2022-09-28T11:18:34.755Z,30.41
2022-09-28T11:19:37.106Z,30.53
2022-09-28T11:20:44.121Z,30.48
2022-09-28T11:21:46.889Z,30.47
2022-09-28T11:22:51.619Z,30.56
2022-09-28T11:23:58.625Z,30.43
2022-09-28T11:25:17.503Z,30.44
2022-09-28T11:26:19.401Z,30.26
2022-09-28T11:27:26.736Z,30.17
2022-09-28T11:28:37.620Z,30.13
2022-09-28T11:29:47.000Z,30.18
2022-09-28T11:30:53.715Z,30.03
2022-09-28T11:32:01.039Z,29.94
2022-09-28T11:33:19.233Z,29.64
2022-09-28T11:34:41.812Z,29.46
2022-09-28T11:36:11.411Z,29.30
2022-09-28T11:37:13.618Z,29.08
2022-09-28T11:38:21.138Z,29.01
2022-09-28T11:39:49.879Z,28.69
2022-09-28T11:41:09.414Z,28.62
2022-09-28T11:42:40.312Z,28.65
2022-09-28T11:44:00.657Z,28.71
2022-09-28T11:45:18.339Z,28.66
2022-09-28T11:46:38.844Z,28.71
2022-09-28T11:47:47.265Z,28.68
2022-09-28T11:48:56.599Z,28.68
2022-09-28T11:50:24.321Z,28.47
2022-09-28T11:51:36.436Z,28.25
2022-09-28T11:52:55.076Z,28.17
2022-09-28T11:54:05.234Z,28.03
2022-09-28T11:55:18.040Z,28.09
2022-09-28T11:56:32.692Z,27.86
2022-09-28T11:57:40.952Z,27.73
2022-09-28T11:58:50.333Z,27.80
2022-09-28T11:59:51.953Z,27.78
2022-09-28T12:01:03.813Z,27.81
2022-09-28T12:02:16.862Z,27.65
2022-09-28T12:03:36.213Z,27.90
2022-09-28T12:04:44.935Z,27.94
2022-09-28T12:05:59.749Z,27.97
2022-09-28T12:07:12.098Z,28.03
2022-09-28T12:08:25.698Z,27.91
2022-09-28T12:09:56.388Z,27.87
2022-09-28T12:11:12.576Z,27.80
2022-09-28T12:12:40.741Z,27.61
2022-09-28T12:13:48.079Z,27.54
2022-09-28T12:14:55.180Z,27.55
2022-09-28T12:17:54.909Z,27.36
2022-09-28T12:19:03.430Z,27.46
2022-09-28T12:20:17.428Z,27.43
2022-09-28T12:21:25.398Z,27.33
2022-09-28T12:22:38.208Z,27.21
2022-09-28T12:23:42.128Z,27.34
2022-09-28T12:24:50.949Z,27.35
2022-09-28T12:25:59.514Z,27.28
2022-09-28T12:27:10.266Z,27.24
2022-09-28T12:28:31.658Z,27.10
2022-09-28T12:29:41.278Z,27.00
2022-09-28T12:30:45.448Z,26.88
2022-09-28T12:32:13.065Z,26.81
2022-09-28T12:33:15.541Z,26.73
2022-09-28T12:34:17.326Z,26.58
2022-09-28T12:35:39.187Z,26.70
2022-09-28T12:36:54.991Z,26.63
2022-09-28T12:38:21.407Z,26.60
2022-09-28T12:39:56.421Z,26.58
2022-09-28T12:41:07.226Z,26.44
2022-09-28T12:42:21.608Z,26.59
2022-09-28T12:43:54.737Z,26.66
2022-09-28T12:45:21.881Z,26.64
2022-09-28T12:46:46.100Z,26.58
2022-09-28T12:48:22.977Z,26.49
2022-09-28T12:51:47.475Z,26.16
2022-09-28T12:52:52.050Z,26.00
2022-09-28T12:54:12.125Z,26.11
2022-09-28T12:55:16.661Z,26.23
2022-09-28T12:56:27.297Z,26.32
2022-09-28T12:57:51.951Z,26.35
2022-09-28T12:59:08.352Z,26.41
2022-09-28T13:00:23.007Z,26.41
2022-09-28T13:01:47.524Z,26.40
2022-09-28T13:03:07.994Z,26.32
2022-09-28T13:04:23.249Z,26.39
2022-09-28T13:06:00.145Z,26.43
2022-09-28T13:07:26.288Z,26.42
2022-09-28T13:08:36.703Z,26.44
2022-09-28T13:09:55.167Z,26.50
2022-09-28T13:11:01.345Z,26.50
2022-09-28T13:12:38.128Z,26.50
2022-09-28T13:13:39.708Z,26.42
2022-09-28T13:15:16.459Z,26.27
2022-09-28T13:17:00.409Z,26.31
2022-09-28T13:18:02.343Z,26.29
2022-09-28T13:19:03.929Z,26.30
2022-09-28T13:20:15.785Z,26.29
2022-09-28T13:21:28.380Z,26.28
2022-09-28T13:22:56.610Z,26.18
2022-09-28T13:24:14.760Z,26.17
2022-09-28T13:25:29.072Z,26.14
2022-09-28T13:26:38.170Z,26.16
2022-09-28T13:27:46.320Z,26.01
2022-09-28T13:28:51.447Z,26.20
2022-09-28T13:29:55.699Z,26.18
2022-09-28T13:31:02.339Z,26.19
2022-09-28T13:32:05.387Z,26.29
2022-09-28T13:33:15.733Z,26.36
2022-09-28T13:34:29.596Z,26.32
2022-09-28T13:35:33.419Z,26.28
2022-09-28T13:36:37.109Z,26.38
2022-09-28T13:37:38.754Z,26.50
2022-09-28T13:38:49.872Z,26.53
2022-09-28T13:39:53.433Z,26.59
2022-09-28T13:41:04.248Z,26.65
2022-09-28T13:42:08.292Z,26.70
2022-09-28T13:43:25.380Z,26.78
2022-09-28T13:45:00.348Z,26.87
2022-09-28T13:46:18.925Z,26.92
2022-09-28T13:47:51.742Z,27.02
2022-09-28T13:49:06.272Z,27.06
2022-09-28T13:50:38.007Z,27.13
2022-09-28T13:51:57.424Z,27.03
2022-09-28T13:53:13.540Z,26.99
2022-09-28T13:54:41.340Z,27.05
2022-09-28T13:56:20.752Z,27.14
2022-09-28T13:57:37.347Z,27.15
2022-09-28T13:58:45.215Z,27.26
2022-09-28T14:00:22.374Z,27.35
2022-09-28T14:01:28.961Z,27.43
2022-09-28T14:02:33.522Z,27.45
2022-09-28T14:03:53.175Z,27.43
2022-09-28T14:05:00.182Z,27.41
2022-09-28T14:06:23.276Z,27.44
2022-09-28T14:07:46.896Z,27.45
2022-09-28T14:09:24.253Z,27.39
2022-09-28T14:10:52.301Z,27.46
2022-09-28T14:12:02.421Z,27.32
2022-09-28T14:13:06.605Z,27.46
2022-09-28T14:14:14.225Z,27.48
2022-09-28T14:15:37.700Z,27.52
2022-09-28T14:16:41.416Z,27.53
2022-09-28T14:17:54.704Z,27.48
2022-09-28T14:19:05.961Z,27.41
2022-09-28T14:20:13.980Z,27.43
2022-09-28T14:21:53.016Z,27.45
2022-09-28T14:23:01.806Z,27.32
2022-09-28T14:24:42.653Z,27.29
2022-09-28T14:26:04.584Z,27.21
2022-09-28T14:27:29.013Z,27.35
2022-09-28T14:28:39.747Z,27.39
2022-09-28T14:29:41.679Z,27.19
2022-09-28T14:30:43.410Z,27.34
2022-09-28T14:31:45.430Z,27.33
2022-09-28T14:32:58.568Z,27.33
2022-09-28T14:34:03.560Z,27.29
2022-09-28T14:35:18.744Z,27.29
2022-09-28T14:36:46.172Z,27.22
2022-09-28T14:38:08.581Z,27.09
2022-09-28T14:39:39.227Z,27.17
2022-09-28T14:41:11.078Z,27.09
2022-09-28T14:42:17.656Z,27.07
2022-09-28T14:43:35.778Z,27.15
2022-09-28T14:45:06.303Z,27.06
2022-09-28T14:46:11.858Z,27.09
2022-09-28T14:47:37.914Z,27.07
2022-09-28T14:49:06.989Z,27.06
2022-09-28T14:50:34.773Z,26.91